Time;durP1;ratioP1;P1;durP2;ratioP2;P2;SDS_P1;SDS_P2;PMS_P1;PMS_P2;Temp;Humidity;BMP_temperature;BMP_pressure;BME280_temperature;BME280_humidity;BME280_pressure;Samples;Min_cycle;Max_cycle;Signal;HPM_P1;HPM_P2
2022/11/18 00:01:15;;;;;;;54.28;38.35;;;8.50;99.90;;;;;;5012762;28;20080;-70
2022/11/18 00:03:42;;;;;;;51.50;35.65;;;8.40;99.90;;;;;;5012569;28;20108;-70
2022/11/18 00:06:21;;;;;;;51.38;34.67;;;8.50;99.90;;;;;;5012350;28;20029;-70
2022/11/18 00:08:47;;;;;;;44.38;30.17;;;8.50;99.90;;;;;;5012427;28;20045;-69
2022/11/18 00:14:18;;;;;;;48.83;35.13;;;8.50;99.90;;;;;;5012361;28;20066;-70
2022/11/18 00:16:57;;;;;;;49.08;34.45;;;8.50;99.90;;;;;;5012601;28;20069;-70
2022/11/18 00:19:25;;;;;;;45.58;32.70;;;8.60;99.90;;;;;;5012433;28;20061;-71
2022/11/18 00:21:51;;;;;;;50.15;35.00;;;8.70;99.90;;;;;;5012484;28;20380;-71
2022/11/18 00:24:17;;;;;;;57.60;38.00;;;8.70;99.90;;;;;;5012597;28;20037;-69
2022/11/18 00:26:43;;;;;;;68.90;45.05;;;8.70;99.90;;;;;;5012104;28;20026;-71
2022/11/18 00:29:10;;;;;;;57.88;39.75;;;8.80;99.90;;;;;;5011786;28;20029;-72
2022/11/18 00:31:36;;;;;;;55.78;36.17;;;8.80;99.90;;;;;;5012235;28;20033;-70
2022/11/18 00:34:02;;;;;;;51.53;34.72;;;8.80;99.90;;;;;;5011958;28;20468;-70
2022/11/18 00:36:28;;;;;;;50.15;35.47;;;8.90;99.90;;;;;;5010166;28;20034;-70
2022/11/18 00:38:54;;;;;;;45.83;33.28;;;8.90;99.90;;;;;;5012281;28;20026;-70
2022/11/18 00:41:20;;;;;;;48.30;33.33;;;8.90;99.90;;;;;;5012257;28;20409;-71
2022/11/18 00:43:46;;;;;;;56.00;38.40;;;8.80;99.90;;;;;;5012057;28;20459;-71
2022/11/18 00:46:12;;;;;;;53.78;39.58;;;8.90;99.90;;;;;;5011546;28;20137;-69
2022/11/18 00:48:39;;;;;;;51.95;36.30;;;8.80;99.90;;;;;;5011929;28;20040;-69
2022/11/18 00:51:10;;;;;;;52.05;33.63;;;8.90;99.90;;;;;;5011913;28;20022;-74
2022/11/18 00:53:36;;;;;;;48.97;33.58;;;8.90;99.90;;;;;;5011075;28;20442;-71
2022/11/18 00:56:02;;;;;;;50.47;35.45;;;9.00;99.90;;;;;;5011087;28;20042;-70
2022/11/18 00:58:28;;;;;;;51.35;34.90;;;8.90;99.90;;;;;;5006158;28;20021;-70
2022/11/18 01:00:54;;;;;;;47.25;33.10;;;8.90;99.90;;;;;;5010695;28;20022;-72
2022/11/18 01:03:21;;;;;;;49.58;31.98;;;9.00;99.90;;;;;;5012192;28;20025;-70
2022/11/18 01:05:47;;;;;;;44.85;31.60;;;9.00;99.90;;;;;;5008490;28;20346;-72
2022/11/18 01:08:13;;;;;;;48.00;30.98;;;9.00;99.90;;;;;;5011149;28;20494;-69
2022/11/18 01:10:39;;;;;;;53.47;35.00;;;9.00;99.90;;;;;;5011669;28;20026;-72
2022/11/18 01:13:19;;;;;;;50.70;33.05;;;9.00;99.90;;;;;;5011396;28;20487;-70
2022/11/18 01:15:57;;;;;;;47.28;34.20;;;8.90;99.90;;;;;;5010833;28;20052;-69
2022/11/18 01:18:29;;;;;;;44.53;28.58;;;8.90;99.90;;;;;;5011842;28;20033;-69
2022/11/18 01:20:59;;;;;;;46.38;29.92;;;8.80;99.90;;;;;;5010564;28;20038;-69
2022/11/18 01:23:25;;;;;;;48.28;30.80;;;8.80;99.90;;;;;;5010011;28;20069;-71
2022/11/18 01:25:51;;;;;;;43.40;29.08;;;8.90;99.90;;;;;;5011400;28;20044;-72
2022/11/18 01:28:17;;;;;;;45.75;30.85;;;8.90;99.90;;;;;;5012569;28;20026;-72
2022/11/18 01:30:44;;;;;;;43.03;29.38;;;8.90;99.90;;;;;;5012049;28;20014;-72
2022/11/18 01:33:11;;;;;;;36.60;27.23;;;8.90;99.90;;;;;;5011760;28;20038;-71
2022/11/18 01:35:41;;;;;;;41.78;26.45;;;9.00;99.90;;;;;;5012259;28;20599;-71
2022/11/18 01:38:32;;;;;;;43.58;28.85;;;8.90;99.90;;;;;;5002737;28;20026;-70
2022/11/18 01:41:17;;;;;;;64.55;41.97;;;9.00;99.90;;;;;;5001099;28;20064;-70
2022/11/18 01:44:11;;;;;;;47.97;32.78;;;9.00;99.90;;;;;;5011051;28;20022;-70
2022/11/18 01:46:36;;;;;;;54.80;37.03;;;8.90;99.90;;;;;;5011775;28;20053;-69
2022/11/18 01:49:10;;;;;;;49.25;34.05;;;8.90;99.90;;;;;;5012097;28;20021;-70
2022/11/18 01:51:45;;;;;;;47.42;32.80;;;8.90;99.90;;;;;;5012375;28;20165;-71
2022/11/18 01:54:19;;;;;;;44.08;31.17;;;8.90;99.90;;;;;;5012006;28;20394;-71
2022/11/18 01:56:51;;;;;;;44.22;30.77;;;8.90;99.90;;;;;;5012185;28;20465;-73
2022/11/18 01:59:21;;;;;;;49.75;32.95;;;9.00;99.90;;;;;;5012021;28;20026;-69
2022/11/18 02:01:47;;;;;;;42.83;30.73;;;9.00;99.90;;;;;;5012330;28;20138;-70
2022/11/18 02:04:13;;;;;;;41.35;29.80;;;9.00;99.90;;;;;;5011964;28;20030;-70
2022/11/18 02:06:41;;;;;;;46.78;30.65;;;9.10;99.90;;;;;;5012019;28;20473;-70
2022/11/18 02:09:10;;;;;;;48.65;34.00;;;9.00;99.90;;;;;;5011932;28;20037;-71
2022/11/18 02:11:52;;;;;;;50.97;33.70;;;9.10;99.90;;;;;;4980655;28;20461;-70
2022/11/18 02:14:31;;;;;;;53.80;33.95;;;9.00;99.90;;;;;;5010577;28;20029;-70
2022/11/18 02:17:06;;;;;;;49.67;33.58;;;9.00;99.90;;;;;;5010267;28;20040;-69
2022/11/18 02:19:35;;;;;;;56.00;34.92;;;9.10;99.90;;;;;;5013633;28;20030;-70
2022/11/18 02:22:29;;;;;;;50.60;32.88;;;9.10;99.90;;;;;;5014303;28;20793;-70
2022/11/18 02:25:20;;;;;;;49.05;33.95;;;9.20;99.90;;;;;;5014144;28;20068;-71
2022/11/18 02:28:16;;;;;;;43.90;31.38;;;9.20;99.90;;;;;;5014067;28;20084;-70
2022/11/18 02:31:07;;;;;;;46.75;31.15;;;9.20;99.90;;;;;;5014265;28;20030;-69
2022/11/18 02:33:46;;;;;;;48.80;32.28;;;9.20;99.90;;;;;;5011804;28;20044;-69
2022/11/18 02:36:19;;;;;;;47.28;33.58;;;9.20;99.90;;;;;;5014305;28;20643;-70
2022/11/18 02:38:51;;;;;;;52.17;34.50;;;9.20;99.90;;;;;;5012125;28;20088;-71
2022/11/18 02:41:22;;;;;;;49.38;33.60;;;9.30;99.90;;;;;;5013889;28;20053;-71
2022/11/18 02:43:55;;;;;;;48.63;34.28;;;9.30;99.90;;;;;;5013845;28;20113;-69
2022/11/18 02:46:29;;;;;;;50.08;32.78;;;9.30;99.90;;;;;;5013586;28;20049;-71
2022/11/18 02:48:55;;;;;;;43.28;30.55;;;9.30;99.90;;;;;;5014038;28;20018;-71
2022/11/18 02:51:28;;;;;;;60.08;40.00;;;9.30;99.90;;;;;;5010238;28;20036;-69
2022/11/18 02:54:02;;;;;;;50.25;36.72;;;9.10;99.90;;;;;;5013604;28;20029;-70
2022/11/18 02:56:29;;;;;;;49.90;34.72;;;9.20;99.90;;;;;;5013788;28;20109;-70
2022/11/18 02:58:55;;;;;;;49.70;35.65;;;9.20;99.90;;;;;;5013671;28;20072;-70
2022/11/18 03:01:27;;;;;;;50.97;33.53;;;9.20;99.90;;;;;;5013426;28;20026;-69
2022/11/18 03:03:53;;;;;;;51.33;31.93;;;9.20;99.90;;;;;;5013731;28;20022;-70
2022/11/18 03:06:36;;;;;;;48.25;33.08;;;9.30;99.90;;;;;;4996519;28;20271;-69
2022/11/18 03:09:11;;;;;;;46.63;33.25;;;9.30;99.90;;;;;;5010588;28;20056;-71
2022/11/18 03:11:56;;;;;;;48.60;32.38;;;9.30;99.90;;;;;;5013708;28;20021;-71
2022/11/18 03:14:38;;;;;;;51.85;33.17;;;9.40;99.90;;;;;;5011679;28;20038;-70
2022/11/18 03:17:50;;;;;;;53.20;33.47;;;9.30;99.90;;;;;;5013434;28;20038;-72
2022/11/18 03:20:32;;;;;;;48.17;34.72;;;9.30;99.90;;;;;;4972237;28;20761;-69
2022/11/18 03:23:21;;;;;;;50.17;33.92;;;9.40;99.90;;;;;;4972152;28;20067;-69
2022/11/18 03:25:53;;;;;;;55.88;36.78;;;9.30;99.90;;;;;;4971927;28;20031;-69
2022/11/18 03:28:33;;;;;;;50.95;36.08;;;9.30;99.90;;;;;;4971837;28;20130;-70
2022/11/18 03:31:11;;;;;;;52.95;37.55;;;9.30;99.90;;;;;;4973057;28;20035;-73
2022/11/18 03:34:08;;;;;;;50.05;36.63;;;9.30;99.90;;;;;;4972541;28;20102;-70
2022/11/18 03:36:39;;;;;;;50.40;37.50;;;9.40;99.90;;;;;;4969352;28;20109;-71
2022/11/18 03:39:06;;;;;;;49.70;33.95;;;9.40;99.90;;;;;;4955412;28;20038;-71
2022/11/18 03:41:39;;;;;;;52.83;35.28;;;9.50;99.90;;;;;;4972028;28;20114;-74
2022/11/18 03:44:09;;;;;;;50.15;34.20;;;9.50;99.90;;;;;;4968101;28;20039;-72
2022/11/18 03:47:01;;;;;;;48.22;34.05;;;9.50;99.90;;;;;;4971394;28;20054;-71
2022/11/18 03:49:39;;;;;;;57.55;38.97;;;9.50;99.90;;;;;;4914044;29;20036;-73
2022/11/18 03:52:12;;;;;;;63.38;41.83;;;9.50;99.90;;;;;;4914203;29;20051;-71
2022/11/18 03:54:39;;;;;;;61.95;40.42;;;9.40;99.90;;;;;;4913848;29;20047;-69
2022/11/18 03:57:14;;;;;;;54.17;39.28;;;9.50;99.90;;;;;;4951974;28;20376;-70
2022/11/18 03:59:46;;;;;;;60.00;38.92;;;9.50;99.90;;;;;;4971399;28;20078;-69
2022/11/18 04:02:17;;;;;;;59.73;39.40;;;9.50;99.90;;;;;;4971615;28;20070;-69
2022/11/18 04:04:46;;;;;;;60.72;39.97;;;9.50;99.90;;;;;;4971129;28;20281;-71
2022/11/18 04:07:29;;;;;;;53.05;36.47;;;9.50;99.90;;;;;;4969848;28;20042;-70
2022/11/18 04:10:15;;;;;;;;;;;9.40;99.90;;;;;;4970421;28;20050;-70
2022/11/18 04:12:53;;;;;;;51.35;37.47;;;9.40;99.90;;;;;;4968942;28;20421;-71
2022/11/18 04:15:19;;;;;;;56.60;38.53;;;9.40;99.90;;;;;;4969353;28;20284;-70
2022/11/18 04:17:45;;;;;;;52.90;39.45;;;9.40;99.90;;;;;;4969667;28;20512;-69
2022/11/18 04:20:20;;;;;;;51.78;36.70;;;9.30;99.90;;;;;;4969560;28;20069;-70
2022/11/18 04:22:47;;;;;;;51.47;37.70;;;9.40;99.90;;;;;;4969529;28;20031;-70
2022/11/18 04:25:13;;;;;;;54.28;37.38;;;9.50;99.90;;;;;;4969556;28;20087;-72
2022/11/18 04:27:39;;;;;;;57.38;37.28;;;9.50;99.90;;;;;;5008734;28;20514;-69
2022/11/18 04:30:06;;;;;;;52.92;39.22;;;9.60;99.90;;;;;;5010933;28;20018;-70
2022/11/18 04:32:32;;;;;;;58.30;39.90;;;9.60;99.90;;;;;;5010562;28;20109;-70
2022/11/18 04:34:58;;;;;;;61.75;39.70;;;9.70;99.90;;;;;;5010577;28;20026;-73
2022/11/18 04:37:24;;;;;;;56.13;39.83;;;9.60;99.90;;;;;;5010617;28;20036;-69
2022/11/18 04:39:50;;;;;;;54.40;38.00;;;9.50;99.90;;;;;;5010602;28;20499;-71
2022/11/18 04:42:16;;;;;;;57.40;39.00;;;9.50;99.90;;;;;;5010322;28;20392;-70
2022/11/18 04:44:42;;;;;;;59.00;39.25;;;9.40;99.90;;;;;;5009892;28;20034;-69
2022/11/18 04:47:10;;;;;;;65.15;42.33;;;9.50;99.90;;;;;;5010257;28;20082;-69
2022/11/18 04:49:35;;;;;;;57.08;37.22;;;9.50;99.90;;;;;;5010752;28;20064;-69
2022/11/18 04:52:02;;;;;;;48.78;34.60;;;9.50;99.90;;;;;;5010010;28;20057;-69
2022/11/18 04:54:28;;;;;;;50.55;34.00;;;9.50;99.90;;;;;;5008666;28;20496;-73
2022/11/18 04:56:54;;;;;;;43.55;33.13;;;9.50;99.90;;;;;;5006805;28;20061;-73
2022/11/18 04:59:24;;;;;;;46.75;32.78;;;9.60;99.90;;;;;;5008808;28;20040;-74
2022/11/18 05:01:50;;;;;;;46.53;33.90;;;9.60;99.90;;;;;;5009405;28;20108;-69
2022/11/18 05:04:22;;;;;;;47.35;31.80;;;9.50;99.90;;;;;;5008620;28;20030;-69
2022/11/18 05:06:48;;;;;;;50.22;31.13;;;9.40;99.90;;;;;;5007318;28;20136;-70
2022/11/18 05:09:14;;;;;;;49.08;31.42;;;9.40;99.90;;;;;;5009971;28;20034;-69
2022/11/18 05:14:31;;;;;;;44.13;30.95;;;9.30;99.90;;;;;;5009966;28;20037;-69
2022/11/18 05:16:59;;;;;;;43.35;31.40;;;9.20;99.90;;;;;;5006469;28;20037;-70
2022/11/18 05:19:25;;;;;;;39.15;29.48;;;9.20;99.90;;;;;;5003666;28;20033;-71
2022/11/18 05:21:52;;;;;;;53.55;33.75;;;9.20;99.90;;;;;;5005647;28;20030;-68
2022/11/18 05:24:18;;;;;;;41.03;29.40;;;9.30;99.90;;;;;;5010221;28;20219;-69
2022/11/18 05:26:43;;;;;;;44.97;32.50;;;9.30;99.90;;;;;;5009982;28;20109;-68
2022/11/18 05:29:09;;;;;;;50.17;35.67;;;9.20;99.90;;;;;;5010736;28;20025;-70
2022/11/18 05:31:35;;;;;;;52.40;35.83;;;9.20;99.90;;;;;;5011200;28;20037;-69
2022/11/18 05:34:04;;;;;;;58.60;40.63;;;9.00;99.90;;;;;;5011151;28;20238;-70
2022/11/18 05:36:33;;;;;;;64.28;42.50;;;8.90;99.90;;;;;;5002996;28;20113;-71
2022/11/18 05:39:00;;;;;;;54.00;36.63;;;9.00;99.90;;;;;;4998144;28;20387;-71
2022/11/18 05:44:11;;;;;;;58.08;39.35;;;9.00;99.90;;;;;;4998771;28;20113;-71
2022/11/18 05:46:36;;;;;;;58.83;39.50;;;9.10;99.90;;;;;;4980480;28;20125;-70
2022/11/18 05:49:02;;;;;;;53.35;38.53;;;9.00;99.90;;;;;;5011064;28;20099;-72
2022/11/18 05:51:28;;;;;;;51.17;34.90;;;9.10;99.90;;;;;;5010688;28;20030;-72
2022/11/18 05:53:55;;;;;;;46.67;32.60;;;9.00;99.90;;;;;;5013868;28;20032;-69
2022/11/18 05:56:49;;;;;;;44.83;32.08;;;8.90;99.90;;;;;;5014832;28;20057;-74
2022/11/18 05:59:15;;;;;;;46.63;32.65;;;8.90;99.90;;;;;;5001369;28;20072;-70
2022/11/18 06:01:53;;;;;;;44.13;31.50;;;8.90;99.90;;;;;;5011292;28;20029;-70
2022/11/18 06:04:21;;;;;;;39.88;28.48;;;9.00;99.90;;;;;;5013983;28;20116;-70
2022/11/18 06:06:49;;;;;;;44.13;28.48;;;8.90;99.90;;;;;;5014344;28;20022;-70
2022/11/18 06:09:18;;;;;;;48.75;33.40;;;8.90;99.90;;;;;;5014673;28;20034;-70
2022/11/18 06:11:49;;;;;;;42.78;29.60;;;9.00;99.90;;;;;;4998728;28;20019;-70
2022/11/18 06:14:21;;;;;;;39.60;26.52;;;9.20;99.90;;;;;;5005512;28;20694;-70
2022/11/18 06:16:51;;;;;;;34.10;24.70;;;9.30;99.90;;;;;;5014529;28;20045;-70
2022/11/18 06:19:17;;;;;;;36.28;24.80;;;9.30;99.90;;;;;;5011983;28;20041;-70
2022/11/18 06:21:44;;;;;;;40.25;26.42;;;9.40;99.90;;;;;;5002629;28;20018;-70
2022/11/18 06:24:12;;;;;;;35.80;25.33;;;9.50;99.90;;;;;;5010066;28;20036;-71
2022/11/18 06:26:39;;;;;;;37.30;24.55;;;9.60;99.90;;;;;;5014477;28;20510;-70
2022/11/18 06:29:08;;;;;;;37.17;26.42;;;9.70;99.90;;;;;;5014469;28;20032;-71
2022/11/18 06:31:34;;;;;;;33.00;23.38;;;9.80;99.90;;;;;;5014170;28;20057;-69
2022/11/18 06:34:00;;;;;;;39.22;26.20;;;9.60;99.90;;;;;;5013981;28;20055;-71
2022/11/18 06:36:27;;;;;;;39.22;25.00;;;9.60;99.90;;;;;;5013882;28;20084;-71
2022/11/18 06:38:52;;;;;;;35.42;24.48;;;9.60;99.90;;;;;;5013766;28;20097;-70
2022/11/18 06:41:19;;;;;;;35.40;23.48;;;9.60;99.90;;;;;;5011540;28;20836;-70
2022/11/18 06:43:45;;;;;;;41.65;27.95;;;9.60;99.90;;;;;;5010456;28;20024;-70
2022/11/18 06:49:09;;;;;;;;;;;;;;;;;;;;;
2022/11/18 06:51:46;;;;;;;38.30;26.00;;;9.60;99.90;;;;;;5013033;28;20053;-71
2022/11/18 06:54:12;;;;;;;47.83;30.92;;;9.70;99.90;;;;;;5013612;28;20080;-71
2022/11/18 06:56:38;;;;;;;49.38;34.10;;;9.60;99.90;;;;;;5007890;28;20030;-71
2022/11/18 06:59:04;;;;;;;37.00;26.55;;;9.70;99.90;;;;;;5012886;28;20022;-70
2022/11/18 07:01:33;;;;;;;42.88;28.45;;;9.80;99.90;;;;;;5004097;28;20044;-71
2022/11/18 07:03:59;;;;;;;44.53;29.95;;;9.70;99.90;;;;;;5011092;28;20021;-70
2022/11/18 07:06:28;;;;;;;36.47;25.30;;;9.80;99.90;;;;;;5005916;28;20034;-71
2022/11/18 07:08:54;;;;;;;37.55;25.20;;;9.80;99.90;;;;;;5005629;28;20025;-76
2022/11/18 07:11:23;;;;;;;34.17;22.55;;;9.90;99.90;;;;;;5013368;28;20037;-72
2022/11/18 07:13:49;;;;;;;40.90;28.27;;;9.70;99.90;;;;;;5012847;28;20072;-76
2022/11/18 07:16:18;;;;;;;36.05;26.30;;;9.80;99.90;;;;;;5004318;28;20037;-74
2022/11/18 07:18:45;;;;;;;35.03;26.13;;;9.80;99.90;;;;;;5013597;28;20057;-76
2022/11/18 07:21:14;;;;;;;36.58;22.60;;;9.90;99.90;;;;;;5012298;28;20065;-74
2022/11/18 07:23:40;;;;;;;32.60;22.50;;;9.90;99.90;;;;;;5012803;28;20053;-72
2022/11/18 07:26:07;;;;;;;35.45;22.85;;;10.00;99.90;;;;;;5017676;23;20062;-69
2022/11/18 07:28:36;;;;;;;34.45;21.10;;;9.90;99.90;;;;;;5014703;28;20443;-70
2022/11/18 07:31:07;;;;;;;31.10;20.95;;;9.90;99.90;;;;;;4999372;28;20038;-70
2022/11/18 07:33:34;;;;;;;36.25;23.23;;;10.00;99.90;;;;;;5005293;28;20042;-71
2022/11/18 07:36:06;;;;;;;32.55;23.30;;;10.10;99.90;;;;;;5007084;28;20042;-71
2022/11/18 07:38:32;;;;;;;40.45;25.23;;;10.10;99.90;;;;;;4999135;28;20038;-75
2022/11/18 07:41:10;;;;;;;37.50;26.70;;;10.20;99.90;;;;;;5012962;28;20021;-76
2022/11/18 07:43:36;;;;;;;35.42;24.35;;;10.20;99.90;;;;;;5010192;28;20066;-75
2022/11/18 07:46:25;;;;;;;36.45;23.73;;;10.20;99.90;;;;;;5002977;28;20030;-75
2022/11/18 07:48:55;;;;;;;27.48;19.95;;;10.20;99.90;;;;;;5013185;28;20056;-76
2022/11/18 07:51:26;;;;;;;32.15;22.90;;;10.30;99.90;;;;;;5012940;28;20056;-76
2022/11/18 07:53:52;;;;;;;31.75;22.48;;;10.40;99.90;;;;;;5012639;28;20076;-75
2022/11/18 07:56:19;;;;;;;88.72;61.10;;;10.40;99.90;;;;;;5012758;28;20095;-76
2022/11/18 07:58:45;;;;;;;95.00;68.43;;;10.50;99.90;;;;;;5007560;28;20088;-72
2022/11/18 08:01:16;;;;;;;56.40;38.53;;;10.50;99.90;;;;;;4994460;28;20026;-71
2022/11/18 08:03:44;;;;;;;46.67;31.83;;;10.60;99.90;;;;;;4993024;28;20077;-71
2022/11/18 08:06:11;;;;;;;39.20;27.23;;;10.60;99.90;;;;;;5011580;28;20030;-71
2022/11/18 08:08:37;;;;;;;38.38;26.48;;;10.50;99.90;;;;;;5010768;28;20046;-71
2022/11/18 08:11:06;;;;;;;35.85;24.30;;;10.60;99.90;;;;;;5011820;28;20042;-70
2022/11/18 08:13:33;;;;;;;39.75;24.85;;;10.60;99.90;;;;;;5000713;28;20479;-71
2022/11/18 08:15:58;;;;;;;32.72;23.90;;;10.60;99.90;;;;;;4999558;28;20040;-76
2022/11/18 08:18:26;;;;;;;40.95;28.00;;;10.70;99.90;;;;;;5011568;28;20468;-73
2022/11/18 08:20:52;;;;;;;53.60;32.10;;;10.60;99.90;;;;;;5004576;28;20026;-71
2022/11/18 08:23:18;;;;;;;33.97;26.02;;;10.70;99.90;;;;;;4998499;28;20469;-73
2022/11/18 08:25:45;;;;;;;41.05;28.27;;;10.60;99.90;;;;;;5011964;28;20108;-72
2022/11/18 08:28:12;;;;;;;37.22;25.50;;;10.60;99.90;;;;;;5012552;28;20084;-76
2022/11/18 08:30:39;;;;;;;43.47;29.67;;;10.60;99.90;;;;;;5009832;28;20375;-71
2022/11/18 08:33:05;;;;;;;38.45;25.67;;;10.50;99.90;;;;;;4998055;28;20041;-71
2022/11/18 08:35:32;;;;;;;35.78;23.52;;;10.60;99.90;;;;;;5011742;28;20121;-71
2022/11/18 08:37:59;;;;;;;34.55;24.27;;;10.60;99.90;;;;;;5011447;28;20026;-76
2022/11/18 08:40:25;;;;;;;35.58;25.52;;;10.60;99.90;;;;;;5007181;28;20396;-76
2022/11/18 08:42:51;;;;;;;36.63;23.58;;;10.70;99.90;;;;;;5011840;28;20022;-72
2022/11/18 08:45:17;;;;;;;35.67;24.42;;;10.70;99.90;;;;;;5011336;28;20026;-71
2022/11/18 08:47:43;;;;;;;34.90;24.02;;;10.70;99.90;;;;;;5009961;28;20571;-76
2022/11/18 08:50:10;;;;;;;33.08;22.40;;;10.60;99.90;;;;;;5003642;28;20673;-75
2022/11/18 08:52:36;;;;;;;51.90;33.85;;;10.60;99.90;;;;;;5001425;28;20030;-70
2022/11/18 08:55:03;;;;;;;61.25;37.10;;;10.70;99.90;;;;;;4990136;28;20053;-70
2022/11/18 08:57:29;;;;;;;70.32;38.00;;;10.70;99.90;;;;;;5010241;28;20487;-75
2022/11/18 08:59:55;;;;;;;63.85;36.05;;;10.80;99.90;;;;;;5010130;28;20024;-76
2022/11/18 09:02:22;;;;;;;91.25;52.30;;;10.80;99.90;;;;;;5006281;28;20022;-77
2022/11/18 09:04:52;;;;;;;82.35;49.05;;;10.90;99.90;;;;;;5009582;28;20133;-74
2022/11/18 09:07:20;;;;;;;74.30;43.50;;;10.90;99.90;;;;;;5009704;28;20026;-70
2022/11/18 09:09:46;;;;;;;81.13;52.67;;;10.90;99.90;;;;;;5009447;28;20033;-76
2022/11/18 09:12:14;;;;;;;74.55;47.08;;;10.80;99.90;;;;;;5009380;28;20034;-69
2022/11/18 09:15:06;;;;;;;50.65;40.03;;;10.80;99.90;;;;;;5010029;28;20034;-72
2022/11/18 09:17:36;;;;;;;44.40;31.67;;;10.80;99.90;;;;;;4950834;29;20051;-77
2022/11/18 09:20:03;;;;;;;47.30;34.42;;;10.60;99.90;;;;;;4944671;29;20036;-75
2022/11/18 09:22:29;;;;;;;48.88;34.50;;;10.50;99.90;;;;;;4940670;29;20043;-77
2022/11/18 09:24:55;;;;;;;46.30;32.65;;;10.40;99.90;;;;;;4949660;28;20035;-71
2022/11/18 09:27:20;;;;;;;41.10;28.45;;;10.30;99.90;;;;;;4949938;28;20051;-72
2022/11/18 09:29:47;;;;;;;42.08;30.05;;;10.40;99.90;;;;;;4950358;29;20548;-74
2022/11/18 09:32:13;;;;;;;37.30;24.75;;;10.20;99.90;;;;;;4950706;29;20126;-76
2022/11/18 09:34:39;;;;;;;40.58;27.40;;;10.20;99.90;;;;;;4949753;29;20352;-77
2022/11/18 09:37:05;;;;;;;36.88;27.40;;;10.20;99.90;;;;;;4933873;29;20051;-72
2022/11/18 09:39:34;;;;;;;47.70;33.85;;;10.30;99.90;;;;;;4934260;29;20038;-76
2022/11/18 09:42:26;;;;;;;43.28;28.35;;;10.20;99.90;;;;;;4950388;29;20532;-71
2022/11/18 09:45:11;;;;;;;41.38;26.75;;;10.30;99.90;;;;;;4946866;29;20126;-73
2022/11/18 09:47:37;;;;;;;39.75;28.67;;;10.30;99.90;;;;;;4945148;28;20393;-72
2022/11/18 09:50:13;;;;;;;38.25;25.95;;;10.40;99.90;;;;;;4985051;28;20030;-71
2022/11/18 09:52:51;;;;;;;37.67;25.05;;;10.50;99.90;;;;;;4979187;28;20157;-72
2022/11/18 09:55:18;;;;;;;38.90;26.35;;;10.60;99.90;;;;;;4991505;28;20049;-71
2022/11/18 09:57:51;;;;;;;36.42;25.30;;;10.60;99.90;;;;;;4991304;28;20046;-72
2022/11/18 10:00:25;;;;;;;34.83;26.90;;;10.60;99.90;;;;;;4991329;28;20045;-72
2022/11/18 10:03:03;;;;;;;35.65;23.15;;;10.60;99.90;;;;;;4991104;28;20033;-72
2022/11/18 10:05:54;;;;;;;34.58;24.38;;;10.70;99.90;;;;;;4991261;28;20045;-76
2022/11/18 10:08:27;;;;;;;33.38;24.23;;;10.70;99.90;;;;;;4921113;29;20132;-73
2022/11/18 10:10:58;;;;;;;41.10;27.35;;;10.70;99.90;;;;;;4908943;29;20451;-73
2022/11/18 10:13:54;;;;;;;36.85;23.25;;;10.60;99.90;;;;;;4911609;29;20168;-72
2022/11/18 10:16:23;;;;;;;33.22;23.20;;;10.70;99.90;;;;;;4911370;29;20083;-73
2022/11/18 10:19:10;;;;;;;36.05;24.58;;;10.80;99.90;;;;;;4911804;29;20040;-72
2022/11/18 10:22:03;;;;;;;44.85;31.10;;;10.80;99.90;;;;;;4920659;29;20454;-72
2022/11/18 10:24:57;;;;;;;36.72;25.15;;;10.90;99.90;;;;;;4914685;29;20554;-70
2022/11/18 10:27:48;;;;;;;41.58;25.80;;;11.00;99.90;;;;;;4938501;29;20063;-77
2022/11/18 10:30:30;;;;;;;33.15;22.30;;;10.90;99.90;;;;;;4963563;23;20181;-72
2022/11/18 10:33:03;;;;;;;40.13;28.10;;;11.00;99.90;;;;;;5004425;28;20523;-76
2022/11/18 10:35:38;;;;;;;38.85;27.83;;;11.20;99.90;;;;;;5002650;28;20041;-73
2022/11/18 10:38:18;;;;;;;36.55;26.00;;;11.30;99.90;;;;;;5003903;28;20076;-69
2022/11/18 10:40:50;;;;;;;33.17;22.17;;;11.60;99.90;;;;;;5000415;28;20038;-71
2022/11/18 10:43:51;;;;;;;36.88;22.95;;;11.80;99.90;;;;;;5005498;28;20030;-69
2022/11/18 10:46:28;;;;;;;29.58;18.83;;;11.90;99.90;;;;;;5005135;28;20052;-68
2022/11/18 10:49:09;;;;;;;30.05;19.88;;;12.00;99.90;;;;;;4996235;28;20054;-69
2022/11/18 10:51:37;;;;;;;28.65;20.33;;;12.20;99.90;;;;;;5005129;28;20113;-68
2022/11/18 10:54:21;;;;;;;28.13;19.92;;;12.20;99.90;;;;;;5000056;28;20021;-68
2022/11/18 10:56:52;;;;;;;25.75;17.48;;;12.20;99.90;;;;;;5000584;28;20117;-68
2022/11/18 10:59:37;;;;;;;27.20;19.25;;;12.30;99.90;;;;;;4993310;28;20480;-68
2022/11/18 11:02:12;;;;;;;26.65;18.50;;;12.20;99.90;;;;;;5006491;28;20040;-69
2022/11/18 11:04:39;;;;;;;27.00;18.73;;;12.40;99.90;;;;;;4999944;28;20105;-69
2022/11/18 11:07:16;;;;;;;30.42;18.25;;;12.50;99.90;;;;;;5003585;28;20033;-69
2022/11/18 11:09:42;;;;;;;26.25;16.52;;;12.50;99.90;;;;;;5009883;28;20104;-68
2022/11/18 11:12:17;;;;;;;28.58;18.67;;;12.50;99.90;;;;;;4996071;28;20049;-70
2022/11/18 11:14:56;;;;;;;27.60;18.23;;;12.50;99.90;;;;;;4996631;28;20034;-70
2022/11/18 11:17:29;;;;;;;28.27;18.33;;;12.50;99.90;;;;;;4998633;28;20030;-71
2022/11/18 11:20:21;;;;;;;28.02;18.85;;;12.60;99.90;;;;;;4998641;28;20134;-69
2022/11/18 11:22:48;;;;;;;25.63;17.77;;;12.60;99.90;;;;;;5000750;28;20036;-71
2022/11/18 11:25:25;;;;;;;26.83;18.17;;;12.70;99.90;;;;;;5000580;28;20033;-70
2022/11/18 11:28:19;;;;;;;26.02;17.02;;;12.70;99.90;;;;;;4994429;28;20037;-70
2022/11/18 11:31:22;;;;;;;32.08;21.88;;;12.80;99.90;;;;;;5002386;28;20120;-69
2022/11/18 11:33:57;;;;;;;31.38;18.48;;;12.60;99.90;;;;;;5000407;28;20548;-70
2022/11/18 11:36:35;;;;;;;28.25;19.27;;;12.70;99.90;;;;;;5010872;28;20037;-69
2022/11/18 11:39:20;;;;;;;29.38;18.27;;;12.70;99.90;;;;;;5000485;28;20030;-71
2022/11/18 11:42:06;;;;;;;23.58;16.98;;;12.60;99.90;;;;;;4999193;28;20491;-71
2022/11/18 11:44:38;;;;;;;26.10;18.02;;;12.70;99.90;;;;;;4995418;28;20096;-70
2022/11/18 11:49:56;;;;;;;32.17;20.00;;;12.60;99.90;;;;;;4998727;28;20084;-71
2022/11/18 11:53:05;;;;;;;30.08;20.83;;;12.70;99.90;;;;;;5004056;28;20027;-70
2022/11/18 11:55:53;;;;;;;28.00;18.48;;;12.80;99.90;;;;;;4966850;28;20043;-72
2022/11/18 11:58:46;;;;;;;25.23;18.00;;;13.00;99.90;;;;;;4969686;28;20484;-70
2022/11/18 12:01:36;;;;;;;27.98;18.30;;;13.10;99.90;;;;;;4970886;28;20061;-73
2022/11/18 12:04:05;;;;;;;30.45;19.45;;;13.20;99.90;;;;;;4971040;28;20143;-70
2022/11/18 12:06:34;;;;;;;22.45;15.57;;;13.10;99.90;;;;;;4970447;28;20035;-70
2022/11/18 12:09:14;;;;;;;24.85;16.25;;;12.90;99.90;;;;;;4970687;28;20587;-71
2022/11/18 12:12:00;;;;;;;26.17;16.60;;;12.90;99.90;;;;;;4969941;28;20413;-72
2022/11/18 12:14:44;;;;;;;27.20;15.98;;;13.20;99.90;;;;;;4966906;28;20508;-70
2022/11/18 12:17:29;;;;;;;24.10;16.40;;;13.30;99.90;;;;;;4970050;28;20054;-74
2022/11/18 12:19:55;;;;;;;22.55;14.60;;;13.40;99.90;;;;;;4968573;28;20102;-71
2022/11/18 12:22:21;;;;;;;24.55;15.48;;;13.50;99.90;;;;;;4967805;28;20082;-71
2022/11/18 12:24:47;;;;;;;22.20;13.02;;;13.40;99.90;;;;;;4970595;28;20031;-71
2022/11/18 12:27:29;;;;;;;24.30;16.33;;;13.40;99.90;;;;;;4970392;28;20058;-70
2022/11/18 12:30:00;;;;;;;23.35;14.02;;;13.60;99.90;;;;;;4954233;28;20042;-72
2022/11/18 12:32:29;;;;;;;23.48;12.65;;;13.60;99.90;;;;;;4981060;28;20507;-74
2022/11/18 12:35:02;;;;;;;24.23;14.88;;;13.80;99.90;;;;;;5005743;28;20061;-73
2022/11/18 12:37:28;;;;;;;20.00;10.45;;;13.80;99.90;;;;;;5005410;28;20042;-74
2022/11/18 12:39:54;;;;;;;18.70;10.95;;;13.70;99.90;;;;;;5011774;28;20052;-73
2022/11/18 12:45:39;;;;;;;18.77;12.07;;;13.90;99.90;;;;;;4992632;28;20031;-74
2022/11/18 12:48:23;;;;;;;20.20;12.57;;;14.00;99.90;;;;;;5007933;28;20025;-71
2022/11/18 12:50:54;;;;;;;15.95;9.60;;;13.90;99.90;;;;;;5007474;28;20034;-74
2022/11/18 12:53:41;;;;;;;15.80;10.05;;;13.70;99.90;;;;;;5003597;28;20034;-74
2022/11/18 12:56:16;;;;;;;21.67;12.77;;;13.90;99.90;;;;;;5005377;28;20046;-70
2022/11/18 12:59:00;;;;;;;21.17;12.90;;;13.90;99.90;;;;;;5005390;28;20018;-74
2022/11/18 13:01:34;;;;;;;22.35;13.07;;;14.00;99.90;;;;;;5003173;28;20026;-70
2022/11/18 13:04:16;;;;;;;19.05;11.95;;;14.00;99.90;;;;;;4993185;28;20027;-75
2022/11/18 13:06:43;;;;;;;17.20;11.10;;;14.00;99.90;;;;;;5001936;28;20026;-73
2022/11/18 13:09:18;;;;;;;17.63;10.50;;;14.00;99.90;;;;;;5006433;28;20523;-70
2022/11/18 13:11:55;;;;;;;18.73;11.60;;;13.90;99.90;;;;;;5007360;28;20030;-71
2022/11/18 13:17:53;;;;;;;19.60;11.90;;;14.20;99.90;;;;;;5006206;28;20045;-70
2022/11/18 13:20:37;;;;;;;28.60;13.15;;;14.10;99.90;;;;;;5005457;28;20069;-71